Time;durP1;ratioP1;P1;durP2;ratioP2;P2;SDS_P1;SDS_P2;PMS_P1;PMS_P2;Temp;Humidity;BMP_temperature;BMP_pressure;BME280_temperature;BME280_humidity;BME280_pressure;Samples;Min_cycle;Max_cycle;Signal;HPM_P1;HPM_P2
2023/12/22 00:01:06;;;;;;;6.07;1.70;;;;;;;4.74;100.00;100241.19;4954793;29;20106;-88
2023/12/22 00:03:32;;;;;;;7.45;1.65;;;;;;;4.78;100.00;100244.63;4963078;28;20174;-88
2023/12/22 00:06:11;;;;;;;5.25;1.40;;;;;;;4.74;100.00;100235.19;4975038;28;20180;-88
2023/12/22 00:08:36;;;;;;;4.68;1.35;;;;;;;4.83;100.00;100254.91;4974592;28;20023;-88
2023/12/22 00:11:02;;;;;;;6.20;1.60;;;;;;;4.76;100.00;100238.63;4974483;28;20031;-88
2023/12/22 00:13:48;;;;;;;6.47;1.60;;;;;;;4.81;100.00;100233.47;4974826;28;20499;-88
2023/12/22 00:16:13;;;;;;;6.90;1.60;;;;;;;4.78;100.00;100232.63;4973904;28;20396;-88
2023/12/22 00:18:49;;;;;;;3.07;1.20;;;;;;;4.80;100.00;100260.88;4974249;28;20030;-89
2023/12/22 00:21:15;;;;;;;9.73;1.70;;;;;;;4.77;100.00;100259.19;4974971;28;20023;-88
2023/12/22 00:23:40;;;;;;;6.72;1.80;;;;;;;4.70;100.00;100254.91;4964757;28;20026;-88
2023/12/22 00:26:05;;;;;;;11.18;1.83;;;;;;;4.78;100.00;100273.75;4954934;29;20058;-86
2023/12/22 00:28:37;;;;;;;12.13;2.40;;;;;;;4.69;100.00;100231.75;4954934;29;20142;-86
2023/12/22 00:31:02;;;;;;;10.65;2.03;;;;;;;4.68;100.00;100240.34;4954145;29;20038;-87
2023/12/22 00:33:27;;;;;;;8.80;2.17;;;;;;;4.61;100.00;100260.06;4970077;28;20051;-86
2023/12/22 00:35:53;;;;;;;7.40;2.17;;;;;;;4.59;100.00;100254.91;4974123;28;20027;-86
2023/12/22 00:38:36;;;;;;;9.95;1.85;;;;;;;4.64;100.00;100263.50;4973580;28;20027;-87
2023/12/22 00:41:02;;;;;;;8.65;1.75;;;;;;;4.71;100.00;100274.63;4976597;28;20015;-87
2023/12/22 00:43:27;;;;;;;8.43;2.20;;;;;;;4.77;100.00;100282.31;4971921;28;20475;-87
2023/12/22 00:46:04;;;;;;;6.53;1.45;;;;;;;4.78;100.00;100286.63;4964944;28;20114;-87
2023/12/22 00:48:30;;;;;;;6.70;1.85;;;;;;;4.75;100.00;100283.19;4961132;28;20483;-87
2023/12/22 00:50:55;;;;;;;10.70;2.33;;;;;;;4.75;100.00;100276.31;4960426;28;20023;-88
2023/12/22 00:53:20;;;;;;;4.85;1.58;;;;;;;4.76;100.00;100275.47;4961217;28;20050;-87
2023/12/22 00:55:45;;;;;;;5.90;1.93;;;;;;;4.78;100.00;100272.91;4961238;28;20492;-87
2023/12/22 00:58:11;;;;;;;4.82;1.55;;;;;;;4.72;100.00;100276.34;4960995;28;20059;-87
2023/12/22 01:00:36;;;;;;;7.40;1.52;;;;;;;4.74;100.00;100279.75;4960809;28;20023;-87
2023/12/22 01:03:04;;;;;;;4.97;1.37;;;;;;;4.67;100.00;100270.34;4960948;28;20023;-88
2023/12/22 01:05:30;;;;;;;9.02;1.90;;;;;;;4.65;100.00;100279.75;4979967;28;20537;-87
2023/12/22 01:07:55;;;;;;;7.70;1.60;;;;;;;4.58;100.00;100262.63;4980229;28;20023;-87
2023/12/22 01:10:23;;;;;;;3.90;1.60;;;;;;;4.61;100.00;100266.06;4980573;28;20031;-88
2023/12/22 01:12:49;;;;;;;4.90;1.30;;;;;;;4.62;100.00;100262.63;4979409;28;20027;-87
2023/12/22 01:15:14;;;;;;;8.88;2.17;;;;;;;4.57;100.00;100258.34;4980673;28;20026;-88
2023/12/22 01:17:39;;;;;;;12.10;2.58;;;;;;;4.59;100.00;100262.63;4976706;28;20495;-88
2023/12/22 01:20:07;;;;;;;7.93;1.85;;;;;;;4.70;100.00;100282.31;4960443;28;20026;-88
2023/12/22 01:22:34;;;;;;;7.10;1.90;;;;;;;4.68;100.00;100266.03;4964586;28;20050;-88
2023/12/22 01:25:01;;;;;;;3.15;1.20;;;;;;;4.84;100.00;100277.19;4964045;28;20027;-88
2023/12/22 01:27:32;;;;;;;4.47;1.38;;;;;;;4.85;100.00;100295.19;4960554;28;20027;-88
2023/12/22 01:29:57;;;;;;;3.13;1.30;;;;;;;4.77;100.00;100279.75;4961219;29;20035;-88
2023/12/22 01:32:26;;;;;;;2.78;1.40;;;;;;;4.85;100.00;100295.19;4960534;28;20065;-88
2023/12/22 01:35:09;;;;;;;3.58;1.50;;;;;;;4.84;100.00;100290.06;4960484;29;20050;-88
2023/12/22 01:37:41;;;;;;;7.95;1.67;;;;;;;4.87;100.00;100293.47;4961212;28;20384;-88
2023/12/22 01:40:07;;;;;;;4.57;1.90;;;;;;;4.88;100.00;100295.19;4960917;29;20034;-88
2023/12/22 01:42:32;;;;;;;6.78;2.00;;;;;;;4.99;100.00;100300.31;4960491;29;20050;-88
2023/12/22 01:45:18;;;;;;;10.07;2.80;;;;;;;5.09;100.00;100301.16;4978965;28;20054;-88
2023/12/22 01:47:46;;;;;;;10.23;2.30;;;;;;;5.04;100.00;100282.28;4980066;28;20054;-88
2023/12/22 01:50:20;;;;;;;12.73;2.42;;;;;;;5.20;100.00;100291.72;4980460;28;20022;-89
2023/12/22 01:52:47;;;;;;;14.55;2.97;;;;;;;5.31;100.00;100291.66;4965199;28;20115;-88
2023/12/22 01:55:21;;;;;;;12.98;2.20;;;;;;;5.43;100.00;100301.09;4957557;29;20024;-88
2023/12/22 01:57:47;;;;;;;12.55;2.35;;;;;;;5.46;100.00;100303.63;4957806;29;20038;-88
2023/12/22 02:00:13;;;;;;;17.10;2.50;;;;;;;5.43;100.00;100308.81;4957939;28;20094;-88
2023/12/22 02:02:54;;;;;;;13.95;2.50;;;;;;;5.46;100.00;100303.63;4957336;29;20106;-88
2023/12/22 02:05:20;;;;;;;14.70;2.50;;;;;;;5.62;100.00;100319.91;4969483;28;20078;-88
2023/12/22 02:07:45;;;;;;;13.13;2.50;;;;;;;5.58;100.00;100307.91;4965373;28;20034;-88
2023/12/22 02:10:11;;;;;;;9.75;2.40;;;;;;;5.63;100.00;100311.31;4977312;28;20475;-88
2023/12/22 02:12:48;;;;;;;10.02;2.40;;;;;;;5.61;100.00;100301.88;4977068;28;20113;-89
2023/12/22 02:15:14;;;;;;;9.55;2.20;;;;;;;5.70;100.00;100304.41;4977143;28;20019;-90
2023/12/22 02:17:58;;;;;;;14.47;2.70;;;;;;;5.73;100.00;100319.88;4977125;28;20109;-89
2023/12/22 02:20:24;;;;;;;11.77;2.55;;;;;;;5.76;100.00;100306.97;4977495;28;20026;-89
2023/12/22 02:23:13;;;;;;;11.43;2.50;;;;;;;5.73;100.00;100299.25;4976442;28;20178;-89
2023/12/22 02:25:38;;;;;;;15.10;2.60;;;;;;;5.72;100.00;100301.00;4973689;28;20042;-90
2023/12/22 02:28:19;;;;;;;12.23;2.67;;;;;;;5.74;100.00;100300.13;4977259;28;20026;-89
2023/12/22 02:30:56;;;;;;;11.70;2.63;;;;;;;5.72;100.00;100300.13;4976391;28;20026;-89
2023/12/22 02:33:33;;;;;;;10.32;2.28;;;;;;;5.85;99.94;100318.97;4976837;28;20085;-90
2023/12/22 02:36:08;;;;;;;10.30;2.42;;;;;;;5.70;97.99;100292.41;4976797;28;20062;-89
2023/12/22 02:38:48;;;;;;;15.75;2.40;;;;;;;5.81;96.98;100309.53;4977057;28;20527;-90
2023/12/22 02:41:32;;;;;;;14.77;2.30;;;;;;;5.85;94.14;100306.09;4977137;28;20023;-90
2023/12/22 02:44:07;;;;;;;12.30;2.17;;;;;;;5.90;95.37;100306.06;4966113;28;20122;-89
2023/12/22 02:46:32;;;;;;;14.40;2.55;;;;;;;5.90;94.22;100303.50;4957654;29;20039;-91
2023/12/22 02:48:57;;;;;;;12.50;2.43;;;;;;;5.91;96.33;100310.38;4957619;29;20456;-91
2023/12/22 02:51:26;;;;;;;10.73;2.13;;;;;;;5.88;96.83;100299.22;4957307;29;20023;-89
2023/12/22 02:53:51;;;;;;;12.07;2.53;;;;;;;5.93;98.25;100324.94;4957005;29;20047;-90
2023/12/22 02:56:28;;;;;;;10.43;2.10;;;;;;;5.87;97.93;100312.94;4957592;28;20043;-90
2023/12/22 02:59:09;;;;;;;10.88;2.22;;;;;;;5.88;97.93;100319.81;4967091;28;20435;-89
2023/12/22 03:01:46;;;;;;;10.57;2.55;;;;;;;5.69;98.78;100287.25;4976401;28;20031;-88
2023/12/22 03:04:18;;;;;;;8.77;2.20;;;;;;;5.71;99.33;100299.28;4963055;28;20034;-89
2023/12/22 03:06:58;;;;;;;9.10;2.33;;;;;;;5.58;100.00;100282.16;4956592;29;20031;-89
2023/12/22 03:09:24;;;;;;;5.25;1.80;;;;;;;5.57;100.00;100285.59;4957232;29;20027;-89
2023/12/22 03:11:54;;;;;;;8.00;2.00;;;;;;;5.51;100.00;100285.63;4956554;29;20057;-89
2023/12/22 03:14:38;;;;;;;6.28;2.08;;;;;;;5.37;100.00;100265.06;4956940;29;20491;-90
2023/12/22 03:17:15;;;;;;;7.93;2.10;;;;;;;5.38;100.00;100259.06;4957167;29;20033;-90
2023/12/22 03:19:52;;;;;;;8.18;2.10;;;;;;;5.39;100.00;100266.78;4956574;29;20039;-89
2023/12/22 03:22:24;;;;;;;7.32;1.83;;;;;;;5.40;100.00;100281.34;4957066;29;20111;-90
2023/12/22 03:24:51;;;;;;;10.07;2.10;;;;;;;5.24;100.00;100247.09;4956071;29;20111;-88
2023/12/22 03:27:20;;;;;;;11.25;2.10;;;;;;;5.34;100.00;100267.66;4956338;29;20073;-89
2023/12/22 03:30:04;;;;;;;9.52;2.17;;;;;;;5.25;100.00;100259.09;4956224;29;20110;-91
2023/12/22 03:33:20;;;;;;;10.68;2.20;;;;;;;5.42;100.00;100286.50;4965153;28;20042;-90
2023/12/22 03:35:46;;;;;;;9.50;2.60;;;;;;;5.37;100.00;100272.78;4975477;28;20039;-89
2023/12/22 03:38:38;;;;;;;11.25;1.90;;;;;;;5.37;100.00;100278.81;4975563;28;20109;-90
2023/12/22 03:41:03;;;;;;;5.18;1.90;;;;;;;5.45;100.00;100285.63;4959879;28;20042;-89
2023/12/22 03:43:32;;;;;;;9.93;1.97;;;;;;;5.47;100.00;100292.47;4975768;28;20471;-90
2023/12/22 03:46:06;;;;;;;8.60;2.03;;;;;;;5.45;100.00;100271.06;4975665;28;20034;-90
2023/12/22 03:48:40;;;;;;;9.45;2.00;;;;;;;5.68;100.00;100294.13;4975694;28;20061;-90
2023/12/22 03:51:17;;;;;;;9.32;2.40;;;;;;;5.74;100.00;100298.41;4975871;28;20018;-92
2023/12/22 03:53:54;;;;;;;9.52;2.30;;;;;;;5.73;100.00;100273.50;4958175;28;20079;-89
2023/12/22 03:56:26;;;;;;;9.15;1.83;;;;;;;5.82;100.00;100291.50;4956418;29;20039;-89
2023/12/22 03:59:03;;;;;;;9.25;2.00;;;;;;;5.88;100.00;100288.03;4955901;28;20197;-90
2023/12/22 04:01:37;;;;;;;8.70;2.13;;;;;;;5.87;100.00;100288.88;4956289;28;20023;-90
2023/12/22 04:04:08;;;;;;;6.65;2.03;;;;;;;6.00;100.00;100315.50;4956622;29;20026;-90
2023/12/22 04:06:40;;;;;;;11.30;2.60;;;;;;;5.98;100.00;100302.56;4956073;28;20469;-91
2023/12/22 04:09:05;;;;;;;7.40;2.00;;;;;;;6.03;100.00;100310.31;4974268;28;20031;-90
2023/12/22 04:11:31;;;;;;;7.17;1.90;;;;;;;6.05;100.00;100311.16;4975645;28;20154;-91
2023/12/22 04:13:59;;;;;;;8.10;1.92;;;;;;;6.01;100.00;100302.59;4975701;28;20023;-91
2023/12/22 04:16:38;;;;;;;13.02;2.22;;;;;;;6.13;100.00;100322.31;4974535;28;20023;-90
2023/12/22 04:19:28;;;;;;;15.38;2.38;;;;;;;6.20;100.00;100335.97;4975695;28;20023;-90
2023/12/22 04:21:53;;;;;;;12.98;2.40;;;;;;;6.14;100.00;100323.16;4974403;28;20514;-89
2023/12/22 04:24:19;;;;;;;8.70;1.80;;;;;;;6.22;100.00;100330.84;4975385;28;20019;-90
2023/12/22 04:26:44;;;;;;;9.70;1.87;;;;;;;6.29;100.00;100332.50;4975092;28;20030;-90
2023/12/22 04:30:00;;;;;;;7.43;2.10;;;;;;;6.29;100.00;100345.41;4975054;28;20023;-90
2023/12/22 04:32:25;;;;;;;10.90;2.15;;;;;;;6.28;100.00;100348.84;4974479;28;20518;-90
2023/12/22 04:34:59;;;;;;;11.07;2.03;;;;;;;6.33;99.18;100363.41;4974577;28;20081;-90
2023/12/22 04:37:36;;;;;;;9.38;2.08;;;;;;;6.21;98.34;100324.81;4974397;28;20023;-90
2023/12/22 04:40:07;;;;;;;9.32;1.90;;;;;;;6.28;96.95;100346.25;4975322;28;20034;-90
2023/12/22 04:42:32;;;;;;;7.82;1.75;;;;;;;6.41;97.44;100357.38;4974590;28;20031;-89
2023/12/22 04:44:58;;;;;;;9.67;2.10;;;;;;;6.32;96.96;100335.91;4962693;28;20400;-90
2023/12/22 04:47:24;;;;;;;7.90;1.80;;;;;;;6.33;97.96;100335.06;4955686;29;20380;-90
2023/12/22 04:50:00;;;;;;;11.38;2.20;;;;;;;6.36;96.07;100339.31;4955608;29;20027;-89
2023/12/22 04:52:28;;;;;;;6.40;2.25;;;;;;;6.33;95.45;100334.22;4955491;29;20031;-90
2023/12/22 04:55:03;;;;;;;6.13;1.63;;;;;;;6.46;96.02;100356.47;4974486;28;20019;-90
2023/12/22 04:57:34;;;;;;;5.72;1.83;;;;;;;6.42;95.54;100348.75;4974639;28;20035;-91
2023/12/22 05:00:12;;;;;;;7.65;1.70;;;;;;;6.36;96.13;100335.91;4975070;28;20046;-90
2023/12/22 05:05:21;;;;;;;9.48;2.00;;;;;;;6.51;96.65;100371.91;5015681;23;20606;-91
2023/12/22 05:08:04;;;;;;;11.93;2.10;;;;;;;6.49;97.47;100369.31;4994385;28;20026;-90
2023/12/22 05:10:39;;;;;;;6.85;1.83;;;;;;;6.42;97.67;100357.34;4994414;28;20023;-90
2023/12/22 05:13:04;;;;;;;9.70;2.30;;;;;;;6.54;97.86;100363.28;4993309;28;20053;-91
2023/12/22 05:15:29;;;;;;;5.40;2.03;;;;;;;6.49;98.95;100346.13;4993728;28;20046;-89
2023/12/22 05:18:13;;;;;;;10.50;2.33;;;;;;;6.57;99.55;100353.81;4993996;28;20026;-90
2023/12/22 05:20:39;;;;;;;11.07;2.13;;;;;;;6.67;100.00;100369.22;4994064;28;20027;-90
2023/12/22 05:23:04;;;;;;;13.37;2.57;;;;;;;6.65;100.00;100361.50;5013721;28;20513;-89
2023/12/22 05:25:42;;;;;;;8.73;1.90;;;;;;;6.61;100.00;100371.00;5013643;28;20072;-91
2023/12/22 05:28:15;;;;;;;10.50;2.03;;;;;;;6.59;100.00;100364.09;5016102;28;20110;-90
2023/12/22 05:30:56;;;;;;;11.13;2.35;;;;;;;6.51;100.00;100364.19;5016857;28;20489;-91
2023/12/22 05:33:26;;;;;;;5.75;1.70;;;;;;;6.46;100.00;100356.47;5017192;28;20030;-90
2023/12/22 05:35:57;;;;;;;6.60;2.30;;;;;;;6.43;100.00;100359.06;5017294;28;20034;-90
2023/12/22 05:38:25;;;;;;;8.32;2.15;;;;;;;6.37;100.00;100361.66;5017322;28;20026;-89
2023/12/22 05:41:08;;;;;;;5.72;1.50;;;;;;;6.33;100.00;100336.78;5016602;28;20057;-90
2023/12/22 05:43:34;;;;;;;9.40;2.00;;;;;;;6.28;100.00;100333.38;5017356;28;20091;-89
2023/12/22 05:46:11;;;;;;;9.93;2.13;;;;;;;6.35;100.00;100342.81;5016685;28;20034;-90
2023/12/22 05:48:52;;;;;;;8.68;1.95;;;;;;;6.31;100.00;100330.78;5016919;28;20052;-89
2023/12/22 05:51:29;;;;;;;10.52;2.38;;;;;;;6.36;100.00;100341.06;5016528;28;20120;-90
2023/12/22 05:54:20;;;;;;;16.85;2.92;;;;;;;6.38;100.00;100341.91;5016962;28;20029;-90
2023/12/22 05:56:45;;;;;;;13.55;3.13;;;;;;;6.54;100.00;100363.28;5016999;28;20041;-90
2023/12/22 05:59:12;;;;;;;14.37;2.87;;;;;;;6.47;100.00;100337.53;5016746;28;20014;-91
2023/12/22 06:01:44;;;;;;;11.60;2.70;;;;;;;6.58;100.00;100354.69;5016561;28;20026;-90
2023/12/22 06:04:10;;;;;;;13.98;2.92;;;;;;;6.59;100.00;100352.09;5018108;28;20053;-91
2023/12/22 06:06:46;;;;;;;15.77;2.93;;;;;;;6.51;100.00;100337.53;5017608;28;20041;-90
2023/12/22 06:09:23;;;;;;;18.70;3.67;;;;;;;6.65;100.00;100362.34;5016401;28;20065;-90
2023/12/22 06:12:04;;;;;;;15.55;3.90;;;;;;;6.51;100.00;100330.66;5016385;28;20022;-90
2023/12/22 06:14:31;;;;;;;15.80;3.28;;;;;;;6.54;100.00;100343.50;5016134;28;20022;-91
2023/12/22 06:16:59;;;;;;;14.70;3.13;;;;;;;6.47;100.00;100327.22;5016323;28;20025;-89
2023/12/22 06:19:28;;;;;;;14.55;2.85;;;;;;;6.50;100.00;100344.41;5016146;28;20025;-89
2023/12/22 06:21:53;;;;;;;11.63;2.30;;;;;;;6.38;100.00;100322.13;5015716;28;20025;-90
2023/12/22 06:24:18;;;;;;;10.60;2.70;;;;;;;6.33;100.00;100326.47;5016419;28;20076;-90
2023/12/22 06:26:56;;;;;;;5.17;1.90;;;;;;;6.30;100.00;100318.75;5016346;28;20040;-90
2023/12/22 06:29:27;;;;;;;14.55;2.63;;;;;;;6.36;100.00;100338.50;5016253;28;20437;-90
2023/12/22 06:32:07;;;;;;;14.45;3.53;;;;;;;6.26;100.00;100325.66;5016111;28;20018;-91
2023/12/22 06:34:48;;;;;;;16.35;3.53;;;;;;;6.28;100.00;100331.66;5015753;28;20034;-91
2023/12/22 06:37:30;;;;;;;17.35;3.40;;;;;;;6.28;100.00;100333.38;5015871;28;20099;-90
2023/12/22 06:39:58;;;;;;;18.80;3.75;;;;;;;6.42;100.00;100351.31;5012559;28;20042;-86
2023/12/22 06:42:35;;;;;;;16.80;3.78;;;;;;;6.45;100.00;100338.41;5013459;28;20018;-84
2023/12/22 06:45:07;;;;;;;16.30;3.45;;;;;;;6.51;100.00;100348.72;5015096;28;20387;-86
2023/12/22 06:47:32;;;;;;;18.95;3.42;;;;;;;6.57;100.00;100360.72;5000819;28;20391;-89
2023/12/22 06:50:19;;;;;;;18.07;3.60;;;;;;;6.57;100.00;100352.97;4995840;28;20030;-90
2023/12/22 06:52:44;;;;;;;23.08;4.40;;;;;;;6.68;100.00;100365.78;4985910;28;20034;-89
2023/12/22 06:55:27;;;;;;;20.17;3.90;;;;;;;6.67;100.00;100354.63;4996135;28;20487;-91
2023/12/22 06:57:56;;;;;;;17.23;3.35;;;;;;;6.69;100.00;100340.00;5014228;28;20022;-89
2023/12/22 07:00:21;;;;;;;19.75;3.85;;;;;;;6.74;100.00;100345.13;5015980;28;20033;-90
2023/12/22 07:03:01;;;;;;;19.07;3.40;;;;;;;6.83;100.00;100345.03;5015211;28;20053;-90
2023/12/22 07:05:37;;;;;;;17.55;3.53;;;;;;;6.81;100.00;100344.19;5015382;28;20056;-89
2023/12/22 07:08:03;;;;;;;17.92;3.47;;;;;;;6.89;100.00;100347.56;5012676;28;20038;-91
2023/12/22 07:10:32;;;;;;;19.37;3.90;;;;;;;6.87;100.00;100345.88;5015028;28;20025;-88
2023/12/22 07:12:58;;;;;;;17.10;3.42;;;;;;;6.85;100.00;100326.97;5015561;28;20022;-89
2023/12/22 07:15:38;;;;;;;18.20;4.17;;;;;;;6.90;100.00;100333.78;5015299;28;20052;-90
2023/12/22 07:18:16;;;;;;;23.30;4.38;;;;;;;6.86;100.00;100308.91;5014990;28;20029;-89
2023/12/22 07:20:41;;;;;;;20.73;4.07;;;;;;;6.92;100.00;100341.53;5015084;28;20032;-89
2023/12/22 07:23:11;;;;;;;21.87;4.57;;;;;;;7.04;100.00;100364.63;5015261;28;20481;-89
2023/12/22 07:25:45;;;;;;;15.27;3.72;;;;;;;6.95;100.00;100342.38;5014514;28;20025;-88
2023/12/22 07:28:28;;;;;;;22.67;4.63;;;;;;;7.12;100.00;100346.50;5015217;28;20026;-89
2023/12/22 07:30:53;;;;;;;21.55;4.20;;;;;;;7.05;100.00;100326.81;5014960;28;20412;-90
2023/12/22 07:33:28;;;;;;;14.37;3.00;;;;;;;7.04;100.00;100328.50;5014517;28;20032;-86
2023/12/22 07:36:08;;;;;;;16.20;3.50;;;;;;;7.09;100.00;100321.59;5014191;28;20049;-88
2023/12/22 07:38:46;;;;;;;17.88;3.78;;;;;;;7.07;100.00;100332.81;5013451;28;20026;-89
2023/12/22 07:41:11;;;;;;;19.80;3.88;;;;;;;7.22;100.00;100340.38;5015187;28;20026;-88
2023/12/22 07:43:37;;;;;;;17.50;3.53;;;;;;;7.21;100.00;100332.66;5014537;28;20036;-89
2023/12/22 07:46:19;;;;;;;18.03;3.43;;;;;;;7.18;100.00;100332.69;5013900;28;20048;-88
2023/12/22 07:48:55;;;;;;;20.23;4.30;;;;;;;7.16;100.00;100327.56;5014321;28;20022;-88
2023/12/22 07:51:21;;;;;;;20.50;4.03;;;;;;;7.21;100.00;100320.59;5013517;28;20041;-89
2023/12/22 07:54:04;;;;;;;16.20;3.30;;;;;;;7.22;100.00;100312.00;5013625;28;20097;-89
2023/12/22 07:56:36;;;;;;;18.98;3.85;;;;;;;7.31;100.00;100334.28;5014199;28;20026;-87
2023/12/22 07:59:19;;;;;;;19.65;3.88;;;;;;;7.28;100.00;100318.81;5014404;28;20022;-83
2023/12/22 08:01:44;;;;;;;18.77;3.75;;;;;;;7.41;100.00;100341.06;5012926;28;20018;-85
2023/12/22 08:04:18;;;;;;;14.03;2.80;;;;;;;7.44;100.00;100347.06;5013274;28;20038;-87
2023/12/22 08:06:46;;;;;;;14.73;3.17;;;;;;;7.33;100.00;100337.72;5011504;28;20551;-88
2023/12/22 08:09:27;;;;;;;13.63;3.08;;;;;;;7.30;100.00;100317.09;5014691;28;20017;-89
2023/12/22 08:12:02;;;;;;;16.92;3.20;;;;;;;7.27;100.00;100324.84;5014593;28;20045;-90
2023/12/22 08:14:30;;;;;;;17.73;3.28;;;;;;;7.36;100.00;100334.25;5012858;28;20037;-88
2023/12/22 08:16:58;;;;;;;19.15;3.30;;;;;;;7.33;100.00;100319.66;5014323;28;20018;-89
2023/12/22 08:19:29;;;;;;;18.77;3.30;;;;;;;7.41;100.00;100335.06;5014160;28;20022;-89
2023/12/22 08:22:03;;;;;;;14.13;3.28;;;;;;;7.41;100.00;100327.31;5013153;28;20033;-85
2023/12/22 08:24:44;;;;;;;13.60;2.70;;;;;;;7.46;100.00;100333.28;5013405;28;20455;-87
2023/12/22 08:27:13;;;;;;;15.30;3.22;;;;;;;7.37;100.00;100335.94;5012542;28;20048;-86
2023/12/22 08:29:38;;;;;;;15.48;3.05;;;;;;;7.42;100.00;100329.03;5012605;28;20029;-90
2023/12/22 08:32:05;;;;;;;14.90;3.47;;;;;;;7.51;100.00;100335.81;5012740;28;20025;-87
2023/12/22 08:34:45;;;;;;;16.42;3.00;;;;;;;7.52;100.00;100345.25;5006460;28;20467;-87
2023/12/22 08:37:11;;;;;;;16.02;3.30;;;;;;;7.44;100.00;100310.94;5006789;28;20026;-87
2023/12/22 08:39:42;;;;;;;17.97;3.23;;;;;;;7.52;100.00;100330.63;5000520;28;20430;-87
2023/12/22 08:42:09;;;;;;;13.07;3.28;;;;;;;7.56;100.00;100321.97;4993209;28;20125;-87
2023/12/22 08:44:34;;;;;;;12.03;2.67;;;;;;;7.58;100.00;100322.81;4993565;28;20103;-86
2023/12/22 08:47:02;;;;;;;11.17;2.53;;;;;;;7.62;100.00;100330.53;4993997;28;20100;-90
2023/12/22 08:49:37;;;;;;;10.45;2.28;;;;;;;7.67;100.00;100328.72;4993281;28;20037;-90
2023/12/22 08:52:21;;;;;;;13.80;3.03;;;;;;;7.69;100.00;100327.88;4993899;28;20030;-89
2023/12/22 08:54:52;;;;;;;10.02;2.22;;;;;;;7.63;100.00;100324.50;4993854;28;20026;-87
2023/12/22 08:57:20;;;;;;;9.07;2.40;;;;;;;7.69;100.00;100320.13;5012465;28;20060;-90
2023/12/22 09:00:05;;;;;;;9.80;2.35;;;;;;;7.66;100.00;100308.94;5013593;28;20032;-90
2023/12/22 09:02:33;;;;;;;8.82;1.95;;;;;;;7.62;100.00;100304.72;5015294;28;20045;-91
2023/12/22 09:08:42;;;;;;;8.70;2.20;;;;;;;7.68;100.00;100299.44;5017701;28;20100;-93
2023/12/22 09:11:07;;;;;;;6.25;1.77;;;;;;;7.62;100.00;100287.47;5017155;28;20037;-90
2023/12/22 09:13:41;;;;;;;7.53;2.00;;;;;;;7.75;100.00;100307.97;5016509;28;20021;-91
2023/12/22 09:16:17;;;;;;;;;;;;;;;;;;;;;
2023/12/22 09:18:58;;;;;;;;;;;;;;;7.84;100.00;100326.81;5012379;28;20502;-91
2023/12/22 09:21:44;;;;;;;4.68;1.52;;;;;;;7.86;100.00;100324.22;5017344;28;19913;-91
2023/12/22 09:24:27;;;;;;;5.85;1.50;;;;;;;7.78;100.00;100307.97;5016371;28;20049;-86
2023/12/22 09:26:52;;;;;;;7.68;1.73;;;;;;;7.87;100.00;100319.03;5053569;23;20105;-86
2023/12/22 09:29:18;;;;;;;9.13;2.00;;;;;;;7.85;100.00;100315.63;4996156;28;20034;-87
2023/12/22 09:31:43;;;;;;;5.07;1.57;;;;;;;7.85;100.00;100310.44;4996094;28;20105;-87
2023/12/22 09:34:14;;;;;;;8.10;2.03;;;;;;;7.88;100.00;100305.22;4996842;28;20379;-83
2023/12/22 09:36:39;;;;;;;6.78;1.50;;;;;;;7.91;100.00;100296.59;4991906;28;20473;-84
2023/12/22 09:39:04;;;;;;;5.70;1.50;;;;;;;7.97;100.00;100306.00;4995854;28;20113;-86
2023/12/22 09:41:33;;;;;;;4.60;1.63;;;;;;;7.98;100.00;100302.53;4993451;28;20142;-92
2023/12/22 09:44:18;;;;;;;5.80;1.67;;;;;;;7.97;100.00;100291.34;4996806;28;20027;-89
2023/12/22 09:46:45;;;;;;;6.50;1.65;;;;;;;8.06;100.00;100298.13;5068670;23;20063;-89
2023/12/22 09:49:12;;;;;;;5.05;1.48;;;;;;;8.12;100.00;100298.03;4958597;29;20058;-89
2023/12/22 09:51:38;;;;;;;;;;;;;;;8.15;100.00;100313.50;4957405;29;20461;-83
2023/12/22 09:54:04;;;;;;;5.10;1.60;;;;;;;8.16;100.00;100304.88;4963325;28;19918;-90
2023/12/22 09:56:50;;;;;;;5.20;1.50;;;;;;;8.19;100.00;100293.63;4977532;28;20279;-92
2023/12/22 09:59:28;;;;;;;4.80;1.60;;;;;;;8.16;100.00;100280.75;4971535;28;20070;-87
2023/12/22 10:02:10;;;;;;;3.90;1.45;;;;;;;8.33;100.00;100298.63;4940399;29;20075;-85
2023/12/22 10:04:35;;;;;;;5.97;1.63;;;;;;;8.31;100.00;100292.59;4950773;29;20058;-89
2023/12/22 10:07:05;;;;;;;6.53;1.57;;;;;;;8.37;100.00;100287.31;4955378;29;20019;-88
2023/12/22 10:09:31;;;;;;;6.05;1.67;;;;;;;8.39;100.00;100303.69;4957559;29;20034;-88
2023/12/22 10:11:58;;;;;;;4.60;1.45;;;;;;;8.46;100.00;100304.44;4950944;29;20019;-80
2023/12/22 10:14:24;;;;;;;4.30;1.70;;;;;;;8.46;100.00;100294.94;4936718;29;20537;-88
2023/12/22 10:16:50;;;;;;;4.53;1.63;;;;;;;8.46;100.00;100304.44;4938562;29;20034;-88
2023/12/22 10:19:24;;;;;;;8.10;1.70;;;;;;;8.54;100.00;100305.22;4957481;29;20023;-86
2023/12/22 10:21:55;;;;;;;4.38;1.40;;;;;;;8.56;100.00;100303.47;4956219;29;20523;-87
2023/12/22 10:24:43;;;;;;;5.65;1.50;;;;;;;8.61;100.00;100301.63;4948948;29;20047;-86
2023/12/22 10:27:09;;;;;;;4.20;1.60;;;;;;;8.65;100.00;100313.66;4944854;29;20038;-85
2023/12/22 10:29:35;;;;;;;7.00;1.80;;;;;;;8.62;100.00;100302.50;4955632;29;20038;-87
2023/12/22 10:32:02;;;;;;;5.20;1.60;;;;;;;8.69;100.00;100298.94;4951954;29;20035;-86
2023/12/22 10:34:34;;;;;;;5.97;1.63;;;;;;;8.69;100.00;100317.03;4956454;29;20030;-84
2023/12/22 10:37:06;;;;;;;6.65;1.88;;;;;;;8.60;100.00;100296.50;4957271;29;20042;-89
2023/12/22 10:39:32;;;;;;;5.03;1.80;;;;;;;8.62;100.00;100292.16;4956373;29;20114;-88
2023/12/22 10:41:58;;;;;;;5.87;1.87;;;;;;;8.67;100.00;100295.50;4955909;29;20027;-88
2023/12/22 10:44:25;;;;;;;4.53;1.50;;;;;;;8.72;100.00;100303.22;4939464;29;20027;-88
2023/12/22 10:46:51;;;;;;;7.45;2.00;;;;;;;8.72;100.00;100309.22;4937579;29;20055;-88
2023/12/22 10:49:16;;;;;;;6.00;1.87;;;;;;;8.72;100.00;100304.06;4937359;29;20028;-81
2023/12/22 10:51:44;;;;;;;6.70;1.90;;;;;;;8.74;100.00;100307.47;4937625;29;20031;-88
2023/12/22 10:54:38;;;;;;;6.25;1.95;;;;;;;8.67;100.00;100302.44;4937719;29;20384;-87
2023/12/22 10:57:17;;;;;;;4.93;1.73;;;;;;;8.69;100.00;100298.94;4943404;28;20395;-88
2023/12/22 11:00:05;;;;;;;6.22;1.80;;;;;;;8.73;100.00;100287.66;4956623;29;20031;-89
2023/12/22 11:02:34;;;;;;;8.90;2.17;;;;;;;8.79;100.00;100302.22;4956049;28;20032;-87
2023/12/22 11:05:07;;;;;;;7.88;1.70;;;;;;;8.81;100.00;100296.13;4956547;28;20030;-88
2023/12/22 11:07:37;;;;;;;8.00;1.98;;;;;;;8.84;100.00;100299.56;4955119;28;20027;-88
2023/12/22 11:10:06;;;;;;;6.72;1.80;;;;;;;8.80;100.00;100306.53;4936743;29;20055;-87
2023/12/22 11:12:36;;;;;;;5.50;1.83;;;;;;;8.77;100.00;100288.47;4937645;29;20024;-90
2023/12/22 11:15:03;;;;;;;5.45;2.20;;;;;;;8.80;100.00;100297.03;4936749;29;20484;-88
2023/12/22 11:17:32;;;;;;;;;;;;;;;8.83;100.00;100293.53;4937095;29;20107;-87
2023/12/22 11:19:59;;;;;;;8.05;2.03;;;;;;;8.81;100.00;100298.72;4937179;29;19970;-88
2023/12/22 11:22:25;;;;;;;7.18;1.92;;;;;;;8.82;100.00;100294.44;4937047;29;20036;-88
2023/12/22 11:24:51;;;;;;;;;;;;;;;8.87;100.00;100278.81;4936504;29;20107;-85
2023/12/22 11:27:19;;;;;;;3.90;1.70;;;;;;;8.88;100.00;100276.19;4938327;28;20018;-87
2023/12/22 11:29:51;;;;;;;5.78;1.80;;;;;;;8.95;100.00;100282.13;4949638;28;20035;-86
2023/12/22 11:32:18;;;;;;;5.05;1.80;;;;;;;8.92;100.00;100283.03;4949373;28;20028;-86
2023/12/22 11:34:47;;;;;;;8.15;1.80;;;;;;;8.99;100.00;100285.50;4944854;29;20424;-87
2023/12/22 11:37:14;;;;;;;5.47;1.77;;;;;;;9.01;100.00;100274.22;4947930;29;20035;-87
2023/12/22 11:39:41;;;;;;;7.90;2.30;;;;;;;9.01;100.00;100275.97;4944226;29;20024;-87
2023/12/22 11:42:14;;;;;;;3.70;1.50;;;;;;;9.06;100.00;100274.19;4944537;29;20020;-86
2023/12/22 11:44:40;;;;;;;6.72;2.00;;;;;;;9.08;100.00;100277.56;4935969;29;20036;-86
2023/12/22 11:47:09;;;;;;;8.23;2.03;;;;;;;9.10;100.00;100265.44;4960882;28;20035;-87
2023/12/22 11:49:36;;;;;;;4.72;1.70;;;;;;;9.08;100.00;100270.66;4963576;28;20283;-87
2023/12/22 11:52:12;;;;;;;7.35;1.98;;;;;;;9.05;100.00;100277.66;4960651;28;20031;-86